Time;durP1;ratioP1;P1;durP2;ratioP2;P2;SDS_P1;SDS_P2;PMS_P1;PMS_P2;Temp;Humidity;BMP_temperature;BMP_pressure;BME280_temperature;BME280_humidity;BME280_pressure;Samples;Min_cycle;Max_cycle;Signal;HPM_P1;HPM_P2
2021/01/05 15:08:17;;;;;;;0.00;0.00;;;;;;;;;;5076519;28;21002;-67
2021/01/05 15:10:43;;;;;;;0.00;0.00;;;;;;;;;;5072476;28;20373;-69
2021/01/05 15:13:10;;;;;;;0.00;0.00;;;;;;;;;;5074541;28;20189;-68
2021/01/05 15:15:36;;;;;;;0.00;0.00;;;;;;;;;;5073758;28;20729;-68
2021/01/05 15:18:03;;;;;;;0.00;0.00;;;;;;;;;;5075037;28;20210;-67
2021/01/05 15:20:30;;;;;;;0.00;0.00;;;;;;;;;;5069474;28;20178;-68
2021/01/05 15:22:56;;;;;;;0.30;0.23;;;;;;;;;;5071915;28;20182;-68
2021/01/05 15:25:23;;;;;;;3.70;1.73;;;;;;;;;;5068897;28;20333;-68
2021/01/05 15:27:49;;;;;;;0.10;0.10;;;;;;;;;;5068730;28;20685;-67
2021/01/05 15:30:16;;;;;;;0.00;0.00;;;;;;;;;;5073650;28;20170;-70
2021/01/05 15:32:42;;;;;;;0.00;0.00;;;;;;;;;;5073634;28;20182;-69
2021/01/05 15:35:09;;;;;;;0.10;0.10;;;;;;;;;;5075089;28;20593;-68
2021/01/05 15:37:36;;;;;;;0.00;0.00;;;;;;;;;;5073763;28;20228;-70
2021/01/05 15:40:02;;;;;;;0.80;0.67;;;;;;;;;;5077757;28;20665;-69
2021/01/05 15:42:29;;;;;;;0.10;0.10;;;;;;;;;;5075945;28;20187;-69
2021/01/05 15:44:55;;;;;;;0.00;0.00;;;;;;;;;;5068576;28;20187;-68
2021/01/05 15:47:22;;;;;;;0.00;0.00;;;;;;;;;;5070795;28;20215;-69
2021/01/05 15:49:49;;;;;;;0.00;0.00;;;;;;;;;;5075871;28;20244;-68
2021/01/05 15:52:18;;;;;;;0.30;0.30;;;;;;;;;;5073163;28;20208;-68
2021/01/05 15:54:44;;;;;;;0.03;0.03;;;;;;;;;;5076375;28;20178;-68
2021/01/05 15:57:11;;;;;;;0.43;0.43;;;;;;;;;;5076071;28;20179;-68
2021/01/05 15:59:40;;;;;;;0.00;0.00;;;;;;;;;;5071832;28;20178;-70
2021/01/05 16:02:12;;;;;;;0.00;0.00;;;;;;;;;;5074585;28;20186;-67
2021/01/05 16:04:38;;;;;;;0.20;0.20;;;;;;;;;;5070143;28;20270;-69
2021/01/05 16:07:14;;;;;;;0.10;0.10;;;;;;;;;;5069494;28;20227;-68
2021/01/05 16:09:41;;;;;;;0.00;0.00;;;;;;;;;;5076117;28;20174;-68
2021/01/05 16:12:07;;;;;;;2.47;2.27;;;;;;;;;;5067118;28;20187;-69
2021/01/05 16:14:34;;;;;;;1.80;0.50;;;;;;;;;;5069395;28;20178;-69
2021/01/05 16:17:01;;;;;;;0.83;0.53;;;;;;;;;;5069377;28;20180;-69
2021/01/05 16:19:28;;;;;;;0.07;0.07;;;;;;;;;;5055838;28;20321;-70
2021/01/05 16:21:55;;;;;;;21.80;1.17;;;;;;;;;;5053458;28;20183;-68
2021/01/05 16:24:23;;;;;;;0.00;0.00;;;;;;;;;;5057048;28;21418;-70
2021/01/05 16:26:49;;;;;;;5.00;0.73;;;;;;;;;;5056643;28;20706;-70
2021/01/05 16:29:16;;;;;;;0.37;0.37;;;;;;;;;;5056472;28;20226;-69
2021/01/05 16:31:50;;;;;;;0.00;0.00;;;;;;;;;;5054172;28;20248;-69
2021/01/05 16:34:17;;;;;;;0.00;0.00;;;;;;;;;;5058265;28;20191;-69
2021/01/05 16:36:43;;;;;;;0.37;0.13;;;;;;;;;;5060501;28;20186;-69
2021/01/05 16:39:10;;;;;;;0.00;0.00;;;;;;;;;;5061909;28;20197;-68
2021/01/05 16:41:38;;;;;;;0.87;0.53;;;;;;;;;;5062222;28;20187;-70
2021/01/05 16:44:05;;;;;;;0.00;0.00;;;;;;;;;;5061777;28;20183;-69
2021/01/05 16:46:39;;;;;;;0.33;0.33;;;;;;;;;;5061376;28;20685;-69
2021/01/05 16:49:05;;;;;;;0.73;0.73;;;;;;;;;;5059470;28;20658;-68
2021/01/05 16:51:32;;;;;;;0.00;0.00;;;;;;;;;;5061147;28;20724;-69
2021/01/05 16:53:59;;;;;;;0.00;0.00;;;;;;;;;;5058385;28;20190;-69
2021/01/05 16:56:26;;;;;;;0.17;0.17;;;;;;;;;;5061004;28;20646;-69
2021/01/05 16:58:53;;;;;;;0.20;0.20;;;;;;;;;;5062353;28;20179;-70
2021/01/05 17:01:21;;;;;;;0.00;0.00;;;;;;;;;;5061401;28;20257;-68
2021/01/05 17:03:47;;;;;;;0.00;0.00;;;;;;;;;;5061930;28;20190;-68
2021/01/05 17:06:14;;;;;;;0.20;0.13;;;;;;;;;;5059807;28;20245;-69
2021/01/05 17:08:41;;;;;;;0.17;0.17;;;;;;;;;;5061557;28;20183;-69
2021/01/05 17:11:09;;;;;;;0.57;0.07;;;;;;;;;;5061147;28;20936;-68
2021/01/05 17:13:36;;;;;;;2.43;0.53;;;;;;;;;;5061426;28;20239;-70
2021/01/05 17:16:03;;;;;;;10.83;0.93;;;;;;;;;;5065178;28;20624;-68
2021/01/05 17:18:30;;;;;;;0.10;0.10;;;;;;;;;;5057091;28;20184;-69
2021/01/05 17:20:56;;;;;;;0.20;0.20;;;;;;;;;;5060212;28;20279;-68
2021/01/05 17:23:23;;;;;;;0.00;0.00;;;;;;;;;;5057964;28;20179;-68
2021/01/05 17:25:50;;;;;;;1.23;0.20;;;;;;;;;;5054403;28;20189;-70
2021/01/05 17:28:18;;;;;;;0.10;0.10;;;;;;;;;;5061008;28;20209;-68
2021/01/05 17:30:46;;;;;;;0.00;0.00;;;;;;;;;;5057010;28;20183;-70
2021/01/05 17:33:13;;;;;;;0.17;0.17;;;;;;;;;;5059988;28;20198;-68
2021/01/05 17:35:41;;;;;;;0.00;0.00;;;;;;;;;;5060058;28;20178;-69
2021/01/05 17:38:09;;;;;;;0.03;0.03;;;;;;;;;;5058953;28;20906;-67
2021/01/05 17:40:36;;;;;;;0.00;0.00;;;;;;;;;;5060159;28;20795;-68
2021/01/05 17:43:04;;;;;;;0.00;0.00;;;;;;;;;;5059148;28;20190;-67
2021/01/05 17:45:31;;;;;;;0.00;0.00;;;;;;;;;;5055909;28;20212;-68
2021/01/05 17:47:59;;;;;;;1.60;1.50;;;;;;;;;;5059234;28;20327;-67
2021/01/05 17:50:26;;;;;;;0.20;0.10;;;;;;;;;;5054704;28;20179;-68
2021/01/05 17:52:53;;;;;;;0.03;0.03;;;;;;;;;;5054662;28;20287;-68
2021/01/05 17:55:21;;;;;;;0.00;0.00;;;;;;;;;;5054057;28;20594;-69
2021/01/05 17:57:47;;;;;;;0.00;0.00;;;;;;;;;;5053204;28;20206;-68
2021/01/05 18:00:15;;;;;;;0.20;0.20;;;;;;;;;;5056017;28;20187;-65
2021/01/05 18:02:41;;;;;;;0.40;0.10;;;;;;;;;;5052105;28;20266;-67
2021/01/05 18:05:08;;;;;;;0.00;0.00;;;;;;;;;;5057371;28;20193;-68
2021/01/05 18:07:35;;;;;;;0.00;0.00;;;;;;;;;;5052308;28;20701;-67
2021/01/05 18:10:01;;;;;;;0.00;0.00;;;;;;;;;;5053816;28;20198;-68
2021/01/05 18:12:31;;;;;;;0.00;0.00;;;;;;;;;;5052541;28;20665;-67
2021/01/05 18:14:58;;;;;;;0.13;0.13;;;;;;;;;;5054644;28;20542;-69
2021/01/05 18:17:24;;;;;;;0.80;0.40;;;;;;;;;;5055689;28;20202;-68
2021/01/05 18:19:51;;;;;;;0.07;0.07;;;;;;;;;;5053681;28;20746;-68
2021/01/05 18:22:18;;;;;;;0.10;0.10;;;;;;;;;;5050011;28;20190;-69
2021/01/05 18:24:44;;;;;;;0.07;0.00;;;;;;;;;;5054938;28;20184;-68
2021/01/05 18:27:11;;;;;;;0.00;0.00;;;;;;;;;;5058909;28;20740;-70
2021/01/05 18:29:38;;;;;;;0.00;0.00;;;;;;;;;;5059702;28;20225;-69
2021/01/05 18:32:04;;;;;;;1.97;0.30;;;;;;;;;;5055110;28;20179;-69
2021/01/05 18:34:31;;;;;;;0.00;0.00;;;;;;;;;;5056377;28;20171;-67
2021/01/05 18:36:58;;;;;;;0.10;0.10;;;;;;;;;;5057289;28;20202;-69
2021/01/05 18:39:25;;;;;;;0.10;0.10;;;;;;;;;;5058859;28;20201;-67
2021/01/05 18:41:52;;;;;;;0.00;0.00;;;;;;;;;;5052611;28;20881;-70
2021/01/05 18:44:19;;;;;;;0.30;0.30;;;;;;;;;;5055454;28;20210;-68
2021/01/05 18:46:47;;;;;;;0.10;0.10;;;;;;;;;;5059118;28;20302;-70
2021/01/05 18:49:15;;;;;;;0.00;0.00;;;;;;;;;;5053814;28;20180;-68
2021/01/05 18:51:41;;;;;;;0.00;0.00;;;;;;;;;;5059181;28;20274;-68
2021/01/05 18:54:08;;;;;;;0.30;0.30;;;;;;;;;;5058879;28;20208;-69
2021/01/05 18:56:35;;;;;;;0.00;0.00;;;;;;;;;;5060323;28;20179;-68
2021/01/05 18:59:04;;;;;;;2.37;0.30;;;;;;;;;;5048944;28;20179;-69
2021/01/05 19:01:33;;;;;;;0.00;0.00;;;;;;;;;;5052476;28;20186;-68
2021/01/05 19:04:00;;;;;;;0.00;0.00;;;;;;;;;;5050004;28;20182;-67
2021/01/05 19:06:28;;;;;;;1.00;0.57;;;;;;;;;;5050787;28;20519;-68
2021/01/05 19:08:54;;;;;;;0.10;0.10;;;;;;;;;;5053778;28;20239;-68
2021/01/05 19:11:22;;;;;;;3.00;0.20;;;;;;;;;;5047563;28;20191;-68
2021/01/05 19:13:49;;;;;;;0.00;0.00;;;;;;;;;;5054716;28;20535;-68
2021/01/05 19:16:17;;;;;;;0.00;0.00;;;;;;;;;;5057450;28;20194;-68
2021/01/05 19:18:43;;;;;;;0.00;0.00;;;;;;;;;;5052503;28;20187;-68
2021/01/05 19:21:11;;;;;;;0.00;0.00;;;;;;;;;;5057294;28;20660;-68
2021/01/05 19:23:38;;;;;;;1.03;0.53;;;;;;;;;;5053146;28;20617;-68
2021/01/05 19:26:04;;;;;;;0.10;0.10;;;;;;;;;;5047917;28;20179;-68
2021/01/05 19:28:31;;;;;;;0.77;0.77;;;;;;;;;;5051770;28;20208;-68
2021/01/05 19:31:00;;;;;;;0.20;0.17;;;;;;;;;;5054451;28;20186;-67
2021/01/05 19:33:30;;;;;;;0.67;0.30;;;;;;;;;;5057261;28;20179;-68
2021/01/05 19:35:58;;;;;;;0.00;0.00;;;;;;;;;;5058363;28;20462;-68
2021/01/05 19:38:26;;;;;;;0.00;0.00;;;;;;;;;;5058385;28;20183;-67
2021/01/05 19:40:52;;;;;;;0.00;0.00;;;;;;;;;;5055023;28;20172;-68
2021/01/05 19:43:19;;;;;;;0.10;0.10;;;;;;;;;;5057141;28;20193;-68
2021/01/05 19:45:53;;;;;;;0.10;0.10;;;;;;;;;;5055103;28;20208;-69
2021/01/05 19:48:20;;;;;;;0.00;0.00;;;;;;;;;;5057274;28;20196;-68
2021/01/05 19:50:48;;;;;;;0.60;0.60;;;;;;;;;;5054414;28;20186;-68
2021/01/05 19:53:14;;;;;;;0.00;0.00;;;;;;;;;;5057096;28;20207;-68
2021/01/05 19:55:41;;;;;;;0.10;0.10;;;;;;;;;;5059012;28;20191;-68
2021/01/05 19:58:07;;;;;;;0.63;0.33;;;;;;;;;;5059720;28;20612;-69
2021/01/05 20:00:35;;;;;;;0.10;0.10;;;;;;;;;;5059846;28;20187;-68
2021/01/05 20:03:05;;;;;;;0.00;0.00;;;;;;;;;;5059817;28;20178;-68
2021/01/05 20:05:32;;;;;;;0.00;0.00;;;;;;;;;;5052497;28;20188;-69
2021/01/05 20:08:00;;;;;;;0.00;0.00;;;;;;;;;;5052535;28;20235;-69
2021/01/05 20:10:28;;;;;;;0.00;0.00;;;;;;;;;;5057494;28;20183;-69
2021/01/05 20:12:55;;;;;;;0.00;0.00;;;;;;;;;;5059451;28;20214;-68
2021/01/05 20:15:24;;;;;;;0.00;0.00;;;;;;;;;;5050811;28;20171;-70
2021/01/05 20:17:52;;;;;;;0.00;0.00;;;;;;;;;;5052180;28;20190;-68
2021/01/05 20:20:19;;;;;;;0.00;0.00;;;;;;;;;;5057751;28;20182;-68
2021/01/05 20:22:47;;;;;;;0.00;0.00;;;;;;;;;;5050569;28;20282;-68
2021/01/05 20:25:16;;;;;;;0.37;0.33;;;;;;;;;;5051160;28;20194;-69
2021/01/05 20:27:43;;;;;;;0.30;0.20;;;;;;;;;;5059419;28;20218;-68
2021/01/05 20:30:11;;;;;;;0.30;0.30;;;;;;;;;;5056222;28;20182;-69
2021/01/05 20:32:41;;;;;;;0.20;0.20;;;;;;;;;;5055879;28;20175;-68
2021/01/05 20:35:09;;;;;;;0.37;0.37;;;;;;;;;;5057849;28;20664;-68
2021/01/05 20:37:36;;;;;;;1.03;1.03;;;;;;;;;;5059229;28;20187;-69
2021/01/05 20:40:07;;;;;;;1.53;0.30;;;;;;;;;;5055376;28;20198;-69
2021/01/05 20:42:34;;;;;;;0.50;0.50;;;;;;;;;;5059724;28;20186;-68
2021/01/05 20:45:00;;;;;;;0.00;0.00;;;;;;;;;;5060277;28;20176;-67
2021/01/05 20:47:27;;;;;;;0.00;0.00;;;;;;;;;;5061321;28;20219;-68
2021/01/05 20:49:54;;;;;;;0.00;0.00;;;;;;;;;;5061733;28;20174;-69
2021/01/05 20:52:25;;;;;;;0.00;0.00;;;;;;;;;;5062375;28;20269;-66
2021/01/05 20:54:52;;;;;;;0.00;0.00;;;;;;;;;;5057471;28;20254;-68
2021/01/05 20:57:21;;;;;;;0.10;0.10;;;;;;;;;;5060449;28;20264;-67
2021/01/05 20:59:49;;;;;;;0.00;0.00;;;;;;;;;;5059268;28;20204;-66
2021/01/05 21:02:16;;;;;;;0.00;0.00;;;;;;;;;;5060366;28;20182;-65
2021/01/05 21:04:43;;;;;;;0.00;0.00;;;;;;;;;;5063284;28;20293;-67
2021/01/05 21:07:09;;;;;;;0.10;0.10;;;;;;;;;;5061081;28;20269;-65
2021/01/05 21:09:36;;;;;;;0.73;0.47;;;;;;;;;;5060927;28;20233;-66
2021/01/05 21:12:04;;;;;;;0.20;0.20;;;;;;;;;;5061681;28;20755;-69
2021/01/05 21:14:31;;;;;;;0.00;0.00;;;;;;;;;;5061071;28;20186;-66
2021/01/05 21:16:59;;;;;;;0.40;0.23;;;;;;;;;;5057297;28;20194;-68
2021/01/05 21:19:35;;;;;;;0.00;0.00;;;;;;;;;;5058235;28;20734;-69
2021/01/05 21:22:03;;;;;;;0.00;0.00;;;;;;;;;;5059236;28;20213;-66
2021/01/05 21:24:30;;;;;;;22.83;0.60;;;;;;;;;;5059086;28;20178;-68
2021/01/05 21:26:57;;;;;;;0.00;0.00;;;;;;;;;;5058404;28;20220;-68
2021/01/05 21:29:24;;;;;;;0.17;0.17;;;;;;;;;;5059251;28;20182;-65
2021/01/05 21:31:56;;;;;;;0.00;0.00;;;;;;;;;;5059710;28;20265;-66
2021/01/05 21:34:22;;;;;;;0.17;0.17;;;;;;;;;;5059749;28;20190;-66
2021/01/05 21:36:59;;;;;;;0.00;0.00;;;;;;;;;;5059469;28;20882;-66
2021/01/05 21:39:26;;;;;;;0.00;0.00;;;;;;;;;;5056585;28;20192;-66
2021/01/05 21:41:53;;;;;;;0.20;0.20;;;;;;;;;;5055546;28;20179;-66
2021/01/05 21:44:20;;;;;;;0.00;0.00;;;;;;;;;;5057086;28;20247;-65
2021/01/05 21:46:47;;;;;;;0.87;0.30;;;;;;;;;;5056618;28;20219;-66
2021/01/05 21:49:15;;;;;;;0.43;0.30;;;;;;;;;;5061041;28;20232;-65
2021/01/05 21:51:41;;;;;;;0.00;0.00;;;;;;;;;;5058586;28;20184;-66
2021/01/05 21:54:09;;;;;;;0.00;0.00;;;;;;;;;;5056079;28;20181;-64
2021/01/05 21:56:36;;;;;;;0.00;0.00;;;;;;;;;;5059658;28;20200;-66
2021/01/05 21:59:03;;;;;;;0.10;0.07;;;;;;;;;;5060219;28;20627;-65
2021/01/05 22:01:31;;;;;;;0.00;0.00;;;;;;;;;;5058389;28;20204;-68
2021/01/05 22:03:58;;;;;;;0.00;0.00;;;;;;;;;;5061169;28;20190;-67
2021/01/05 22:06:24;;;;;;;0.00;0.00;;;;;;;;;;5053441;28;20238;-68
2021/01/05 22:08:51;;;;;;;0.00;0.00;;;;;;;;;;5057503;28;20205;-67
2021/01/05 22:11:21;;;;;;;0.20;0.20;;;;;;;;;;5056997;28;20621;-66
2021/01/05 22:13:48;;;;;;;0.87;0.20;;;;;;;;;;5057202;28;20220;-66
2021/01/05 22:16:18;;;;;;;0.10;0.10;;;;;;;;;;5058839;28;20289;-66
2021/01/05 22:18:47;;;;;;;0.20;0.20;;;;;;;;;;5057870;28;20186;-66
2021/01/05 22:21:14;;;;;;;0.00;0.00;;;;;;;;;;5060217;28;20186;-66
2021/01/05 22:23:41;;;;;;;0.00;0.00;;;;;;;;;;5054107;28;20182;-67
2021/01/05 22:26:07;;;;;;;0.00;0.00;;;;;;;;;;5055664;28;20192;-68
2021/01/05 22:28:35;;;;;;;0.00;0.00;;;;;;;;;;5055576;28;20243;-66
2021/01/05 22:31:03;;;;;;;0.00;0.00;;;;;;;;;;5061324;28;20185;-67
2021/01/05 22:33:31;;;;;;;0.00;0.00;;;;;;;;;;5059518;28;20181;-70
2021/01/05 22:35:57;;;;;;;0.00;0.00;;;;;;;;;;5057476;28;20222;-67
2021/01/05 22:38:26;;;;;;;1.17;0.77;;;;;;;;;;5057564;28;20184;-66
2021/01/05 22:40:53;;;;;;;0.00;0.00;;;;;;;;;;5055411;28;20288;-70
2021/01/05 22:43:22;;;;;;;0.00;0.00;;;;;;;;;;5058768;28;20234;-65
2021/01/05 22:45:57;;;;;;;0.00;0.00;;;;;;;;;;5058335;28;20235;-66
2021/01/05 22:48:24;;;;;;;0.00;0.00;;;;;;;;;;5056932;28;20197;-65
2021/01/05 22:50:51;;;;;;;0.00;0.00;;;;;;;;;;5052219;28;20196;-65
2021/01/05 22:53:18;;;;;;;0.00;0.00;;;;;;;;;;5057862;28;20634;-65
2021/01/05 22:55:45;;;;;;;0.00;0.00;;;;;;;;;;5056298;28;20230;-66
2021/01/05 22:58:16;;;;;;;0.20;0.20;;;;;;;;;;5061714;28;20239;-66
2021/01/05 23:00:50;;;;;;;0.00;0.00;;;;;;;;;;5060555;28;20180;-67
2021/01/05 23:03:18;;;;;;;0.10;0.10;;;;;;;;;;5058550;28;20198;-65
2021/01/05 23:05:45;;;;;;;0.00;0.00;;;;;;;;;;5050782;28;20195;-66
2021/01/05 23:08:21;;;;;;;0.87;0.53;;;;;;;;;;5050093;28;20263;-66
2021/01/05 23:10:49;;;;;;;0.27;0.20;;;;;;;;;;5055202;28;20191;-66
2021/01/05 23:13:16;;;;;;;0.00;0.00;;;;;;;;;;5054692;28;20180;-67
2021/01/05 23:15:43;;;;;;;0.00;0.00;;;;;;;;;;5053895;28;20276;-67
2021/01/05 23:18:15;;;;;;;0.03;0.03;;;;;;;;;;5055469;28;20186;-66
2021/01/05 23:20:42;;;;;;;0.00;0.00;;;;;;;;;;5058133;28;20267;-67
2021/01/05 23:23:10;;;;;;;0.20;0.20;;;;;;;;;;5059117;28;20222;-66
2021/01/05 23:25:36;;;;;;;0.10;0.10;;;;;;;;;;5053999;28;20182;-69
2021/01/05 23:28:03;;;;;;;0.10;0.10;;;;;;;;;;5051888;28;20706;-66
2021/01/05 23:30:31;;;;;;;0.87;0.87;;;;;;;;;;5060214;28;20586;-68
2021/01/05 23:32:59;;;;;;;1.40;1.30;;;;;;;;;;5059429;28;20177;-67
2021/01/05 23:35:28;;;;;;;0.00;0.00;;;;;;;;;;5053834;28;20180;-66
2021/01/05 23:37:55;;;;;;;0.00;0.00;;;;;;;;;;5058766;28;20172;-67
2021/01/05 23:40:23;;;;;;;0.00;0.00;;;;;;;;;;5059446;28;20222;-68
2021/01/05 23:42:53;;;;;;;0.10;0.10;;;;;;;;;;5058064;28;20566;-70
2021/01/05 23:45:22;;;;;;;0.10;0.10;;;;;;;;;;5060035;28;20185;-68
2021/01/05 23:47:49;;;;;;;0.00;0.00;;;;;;;;;;5055009;28;20223;-69
2021/01/05 23:50:18;;;;;;;0.20;0.20;;;;;;;;;;5054328;28;20180;-70
2021/01/05 23:52:47;;;;;;;0.00;0.00;;;;;;;;;;5056714;28;20172;-68
2021/01/05 23:55:14;;;;;;;0.00;0.00;;;;;;;;;;5054895;28;20614;-70
2021/01/05 23:57:41;;;;;;;0.53;0.53;;;;;;;;;;5056184;28;20190;-70
